Time;durP1;ratioP1;P1;durP2;ratioP2;P2;SDS_P1;SDS_P2;PMS_P1;PMS_P2;Temp;Humidity;BMP_temperature;BMP_pressure;BME280_temperature;BME280_humidity;BME280_pressure;Samples;Min_cycle;Max_cycle;Signal;HPM_P1;HPM_P2
2022/01/23 00:00:33;;;;;;;4.80;4.40;;;3.20;98.80;;;;;;5057389;28;20174;-87
2022/01/23 00:03:01;;;;;;;4.67;4.20;;;3.10;98.70;;;;;;5039007;28;20229;-85
2022/01/23 00:05:33;;;;;;;4.57;4.27;;;3.20;98.80;;;;;;5038957;28;20171;-85
2022/01/23 00:08:00;;;;;;;4.97;4.57;;;3.20;98.80;;;;;;5057030;28;20154;-86
2022/01/23 00:10:26;;;;;;;4.73;4.13;;;3.20;98.70;;;;;;5056476;28;20607;-87
2022/01/23 00:13:05;;;;;;;5.07;4.63;;;3.20;98.50;;;;;;5057060;28;20258;-87
2022/01/23 00:18:15;;;;;;;5.80;5.20;;;3.20;98.70;;;;;;5056958;28;20214;-86
2022/01/23 00:20:41;;;;;;;5.70;5.20;;;3.20;98.80;;;;;;5056766;28;20212;-86
2022/01/23 00:23:15;;;;;;;6.27;5.17;;;3.20;98.80;;;;;;5057929;28;20538;-86
2022/01/23 00:31:09;;;;;;;5.67;5.17;;;3.20;98.90;;;;;;5057760;28;20180;-87
2022/01/23 00:33:35;;;;;;;5.37;4.97;;;3.20;98.80;;;;;;5056789;28;20168;-84
2022/01/23 00:36:03;;;;;;;5.50;5.00;;;3.20;98.80;;;;;;5056562;28;20195;-83
2022/01/23 00:38:29;;;;;;;5.30;4.80;;;3.20;98.90;;;;;;5058912;28;20214;-81
2022/01/23 00:40:55;;;;;;;5.33;4.83;;;3.20;98.80;;;;;;5061278;28;20178;-81
2022/01/23 00:43:29;;;;;;;5.47;5.03;;;3.10;98.90;;;;;;5061967;28;20172;-80
2022/01/23 00:46:22;;;;;;;5.23;4.83;;;3.20;99.00;;;;;;5065727;28;20152;-80
2022/01/23 00:51:30;;;;;;;5.43;4.93;;;3.20;98.80;;;;;;5075418;28;20179;-80
2022/01/23 00:53:57;;;;;;;5.30;4.80;;;3.20;98.60;;;;;;5056712;28;20168;-81
2022/01/23 00:56:23;;;;;;;5.53;5.03;;;3.20;98.80;;;;;;5061349;28;20659;-86
2022/01/23 00:58:49;;;;;;;5.57;5.07;;;3.20;98.80;;;;;;5056347;28;20187;-87
2022/01/23 01:01:15;;;;;;;6.50;5.07;;;3.30;98.70;;;;;;5056258;28;20172;-87
2022/01/23 01:03:44;;;;;;;5.40;5.00;;;3.20;98.80;;;;;;5055963;28;20711;-87
2022/01/23 01:06:11;;;;;;;5.27;4.73;;;3.10;98.80;;;;;;5055982;28;20182;-88
2022/01/23 01:08:37;;;;;;;6.33;5.43;;;3.10;99.00;;;;;;5038743;28;20172;-88
2022/01/23 01:37:59;;;;;;;6.17;5.57;;;2.90;99.50;;;;;;4996410;28;20213;-87
2022/01/23 01:40:26;;;;;;;6.73;5.47;;;2.90;99.50;;;;;;4994121;28;20178;-87
2022/01/23 01:42:53;;;;;;;5.50;5.00;;;2.90;99.50;;;;;;4994065;28;20185;-85
2022/01/23 01:45:23;;;;;;;5.50;5.00;;;2.80;99.60;;;;;;4993957;28;20216;-86
2022/01/23 01:47:51;;;;;;;5.40;4.97;;;2.70;99.90;;;;;;4993708;28;20323;-87
2022/01/23 01:50:18;;;;;;;5.57;5.07;;;2.70;99.90;;;;;;4977399;28;20209;-87
2022/01/23 01:52:44;;;;;;;5.00;4.60;;;2.70;99.80;;;;;;4994175;28;20186;-87
2022/01/23 01:55:14;;;;;;;5.50;5.00;;;2.70;99.70;;;;;;4993529;28;20241;-86
2022/01/23 01:57:44;;;;;;;5.17;4.67;;;2.70;99.60;;;;;;4993397;28;20272;-86
2022/01/23 02:00:15;;;;;;;5.43;4.93;;;2.80;99.60;;;;;;4977569;28;20174;-88
2022/01/23 02:10:38;;;;;;;5.50;5.10;;;2.70;99.70;;;;;;5006480;28;20301;-87
2022/01/23 02:13:10;;;;;;;5.97;5.37;;;2.70;99.70;;;;;;5056114;28;20182;-87
2022/01/23 02:51:00;;;;;;;5.80;5.30;;;2.60;99.50;;;;;;5069459;28;20213;-86
2022/01/23 02:54:06;;;;;;;7.07;6.23;;;2.60;99.60;;;;;;5056013;28;20159;-85
2022/01/23 02:56:34;;;;;;;7.00;6.20;;;2.60;99.50;;;;;;5053803;28;20164;-86
2022/01/23 02:59:11;;;;;;;6.57;5.93;;;2.60;99.30;;;;;;5054228;28;20199;-86
2022/01/23 03:01:47;;;;;;;6.50;5.90;;;2.50;99.40;;;;;;5053963;28;20179;-87
2022/01/23 03:04:13;;;;;;;7.13;6.20;;;2.50;99.40;;;;;;5053866;28;20175;-87
2022/01/23 03:14:59;;;;;;;6.50;5.80;;;2.40;99.40;;;;;;5054586;28;20186;-86
2022/01/23 03:32:46;;;;;;;4.67;4.17;;;2.10;99.70;;;;;;5057470;28;20216;-85
2022/01/23 03:35:13;;;;;;;5.03;4.63;;;2.10;99.80;;;;;;5061255;28;20178;-82
2022/01/23 03:37:39;;;;;;;5.17;4.67;;;2.00;99.90;;;;;;5066851;28;20231;-81
2022/01/23 03:40:06;;;;;;;4.90;4.47;;;2.10;99.90;;;;;;5070766;28;20168;-83
2022/01/23 03:42:37;;;;;;;5.20;4.80;;;2.00;99.90;;;;;;5061517;28;20180;-83
2022/01/23 03:47:42;;;;;;;4.93;4.53;;;2.10;99.90;;;;;;5054449;28;20160;-86
2022/01/23 03:50:11;;;;;;;4.93;4.53;;;2.10;99.80;;;;;;5035994;28;20210;-86
2022/01/23 03:52:38;;;;;;;5.80;4.93;;;2.10;99.90;;;;;;5053692;28;20627;-87
2022/01/23 03:55:06;;;;;;;5.27;4.77;;;2.10;99.80;;;;;;5054156;28;20258;-87
2022/01/23 03:57:32;;;;;;;4.70;4.30;;;2.00;99.80;;;;;;5053670;28;20167;-85
2022/01/23 03:59:58;;;;;;;4.57;4.23;;;2.00;99.90;;;;;;5053095;28;20252;-87
2022/01/23 04:02:24;;;;;;;5.53;5.03;;;1.90;99.90;;;;;;5053432;28;20208;-85
2022/01/23 04:04:50;;;;;;;5.80;5.30;;;1.80;99.90;;;;;;5053883;28;20175;-86
2022/01/23 04:07:23;;;;;;;6.43;5.83;;;1.80;99.90;;;;;;5053214;28;20245;-85
2022/01/23 04:09:49;;;;;;;7.30;6.00;;;1.80;99.90;;;;;;5052875;28;20282;-86
2022/01/23 04:15:04;;;;;;;7.77;6.83;;;1.80;99.90;;;;;;5052668;28;20156;-86
2022/01/23 05:00:53;;;;;;;4.53;4.20;;;1.30;99.90;;;;;;5056396;28;20173;-86
2022/01/23 05:05:47;;;;;;;5.10;4.60;;;1.40;99.90;;;;;;5040287;28;20169;-86
2022/01/23 05:08:17;;;;;;;4.70;4.30;;;1.40;99.90;;;;;;5064120;28;20242;-87
2022/01/23 05:10:45;;;;;;;4.27;4.07;;;1.40;99.90;;;;;;5072757;28;20225;-85
2022/01/23 05:13:11;;;;;;;4.40;4.00;;;1.40;99.90;;;;;;5062298;28;20167;-85
2022/01/23 05:15:37;;;;;;;4.70;4.30;;;1.50;99.90;;;;;;5055886;28;20170;-85
2022/01/23 05:18:03;;;;;;;4.00;3.70;;;1.50;99.90;;;;;;5055832;28;20255;-87
2022/01/23 05:20:30;;;;;;;4.17;3.83;;;1.50;99.90;;;;;;5055877;28;20601;-86
2022/01/23 05:23:02;;;;;;;4.13;3.83;;;1.50;99.90;;;;;;5037791;28;20251;-88
2022/01/23 05:25:30;;;;;;;4.20;3.90;;;1.50;99.90;;;;;;5056203;28;20158;-84
2022/01/23 05:27:56;;;;;;;3.90;3.70;;;1.60;99.90;;;;;;5055628;28;20270;-85
2022/01/23 05:30:23;;;;;;;4.50;4.10;;;1.50;99.90;;;;;;5058312;28;20221;-84
2022/01/23 05:32:49;;;;;;;4.03;3.80;;;1.50;99.90;;;;;;5061896;28;20747;-85
2022/01/23 05:35:20;;;;;;;4.00;3.70;;;1.60;99.90;;;;;;5041379;28;20187;-82
2022/01/23 05:37:47;;;;;;;4.60;4.30;;;1.70;99.90;;;;;;5063880;28;20301;-85
2022/01/23 05:40:15;;;;;;;4.30;4.00;;;1.70;99.90;;;;;;5063173;28;20674;-81
2022/01/23 05:42:41;;;;;;;4.67;4.27;;;1.60;99.90;;;;;;5063140;28;20187;-83
2022/01/23 05:45:08;;;;;;;4.73;4.33;;;1.70;99.90;;;;;;5056241;28;20218;-84
2022/01/23 05:47:34;;;;;;;4.27;3.90;;;1.70;99.90;;;;;;5056275;28;20194;-83
2022/01/23 05:50:00;;;;;;;4.30;4.00;;;1.70;99.90;;;;;;5055604;28;20253;-83
2022/01/23 05:52:26;;;;;;;5.53;4.47;;;1.80;99.90;;;;;;5053891;28;20176;-84
2022/01/23 05:54:52;;;;;;;4.67;4.27;;;1.70;99.90;;;;;;5055163;28;20175;-82
2022/01/23 05:57:18;;;;;;;4.70;4.30;;;1.60;99.90;;;;;;5055086;28;20673;-82
2022/01/23 05:59:44;;;;;;;4.53;4.13;;;1.70;99.90;;;;;;5054370;28;20168;-86
2022/01/23 06:02:09;;;;;;;6.00;4.80;;;1.60;99.90;;;;;;5036862;28;20266;-83
2022/01/23 06:04:35;;;;;;;4.70;4.30;;;1.60;99.90;;;;;;5054556;28;20170;-82
2022/01/23 06:07:02;;;;;;;4.60;4.20;;;1.60;99.90;;;;;;5054480;28;20599;-83
2022/01/23 06:09:28;;;;;;;4.43;4.13;;;1.50;99.90;;;;;;5054989;28;20235;-87
2022/01/23 06:11:54;;;;;;;4.10;3.80;;;1.50;99.90;;;;;;5055200;28;20530;-86
2022/01/23 06:14:20;;;;;;;4.50;4.10;;;1.40;99.90;;;;;;5055142;28;20521;-86
2022/01/23 06:16:46;;;;;;;4.40;4.00;;;1.50;99.90;;;;;;5054780;28;20170;-85
2022/01/23 06:19:12;;;;;;;4.07;3.87;;;1.50;99.90;;;;;;5054880;28;20178;-87
2022/01/23 06:21:38;;;;;;;4.27;3.97;;;1.60;99.90;;;;;;5054725;28;20652;-86
2022/01/23 06:24:10;;;;;;;4.90;4.23;;;1.60;99.90;;;;;;5054895;28;20211;-84
2022/01/23 06:26:43;;;;;;;4.50;4.10;;;1.70;99.90;;;;;;5054720;28;20155;-84
2022/01/23 06:29:10;;;;;;;4.63;4.13;;;1.60;99.90;;;;;;5055086;28;20178;-86
2022/01/23 06:31:37;;;;;;;4.13;3.83;;;1.60;99.90;;;;;;5055649;28;20503;-82
2022/01/23 06:34:05;;;;;;;4.70;4.30;;;1.60;99.90;;;;;;5055654;28;20520;-86
2022/01/23 06:36:32;;;;;;;4.37;4.07;;;1.60;99.90;;;;;;5059718;28;20180;-82
2022/01/23 06:38:59;;;;;;;4.47;4.07;;;1.60;99.90;;;;;;5070729;28;20165;-85
2022/01/23 06:41:25;;;;;;;4.60;4.30;;;1.60;99.90;;;;;;5067582;28;20180;-85
2022/01/23 06:43:51;;;;;;;5.00;4.60;;;1.60;99.90;;;;;;5056534;28;20194;-84
2022/01/23 06:46:17;;;;;;;5.03;4.50;;;1.60;99.90;;;;;;5063875;28;20176;-83
2022/01/23 06:48:43;;;;;;;5.27;4.87;;;1.60;99.90;;;;;;5056479;28;20737;-85
2022/01/23 06:51:09;;;;;;;7.80;4.93;;;1.60;99.90;;;;;;5054254;28;20293;-83
2022/01/23 06:53:34;;;;;;;5.13;4.73;;;1.70;99.90;;;;;;5054352;28;20654;-85
2022/01/23 06:56:00;;;;;;;4.70;4.30;;;1.70;99.90;;;;;;5054462;28;20248;-85
2022/01/23 06:58:26;;;;;;;5.40;4.33;;;1.70;99.90;;;;;;5056925;28;20178;-86
2022/01/23 07:00:52;;;;;;;5.10;4.70;;;1.80;99.90;;;;;;5066515;28;20242;-82
2022/01/23 07:03:17;;;;;;;5.63;5.13;;;1.80;99.90;;;;;;5069671;28;20233;-84
2022/01/23 07:05:43;;;;;;;6.47;5.87;;;1.90;99.90;;;;;;5041126;28;20201;-84
2022/01/23 07:08:09;;;;;;;6.53;5.93;;;1.90;99.90;;;;;;5054253;28;20233;-87
2022/01/23 07:10:35;;;;;;;6.20;5.60;;;1.90;99.90;;;;;;5053831;28;20293;-83
2022/01/23 07:13:00;;;;;;;7.07;6.40;;;1.90;99.90;;;;;;5053413;28;20179;-85
2022/01/23 07:15:29;;;;;;;8.03;7.23;;;1.90;99.90;;;;;;5053800;28;20174;-81
2022/01/23 07:17:55;;;;;;;8.03;7.23;;;1.90;99.90;;;;;;5053648;28;20174;-81
2022/01/23 07:20:21;;;;;;;8.57;7.67;;;1.90;99.90;;;;;;5053458;28;20741;-82
2022/01/23 07:22:47;;;;;;;7.60;6.90;;;1.80;99.90;;;;;;5053202;28;20174;-81
2022/01/23 07:25:13;;;;;;;6.93;6.27;;;1.80;99.90;;;;;;5053539;28;20167;-81
2022/01/23 07:27:51;;;;;;;7.57;6.80;;;1.80;99.90;;;;;;5053144;28;20580;-82
2022/01/23 07:30:40;;;;;;;7.20;6.50;;;1.90;99.90;;;;;;5053192;28;20288;-86
2022/01/23 07:33:06;;;;;;;8.43;6.80;;;2.00;99.90;;;;;;5053317;28;20172;-86
2022/01/23 07:35:32;;;;;;;7.97;7.17;;;2.00;99.90;;;;;;5053530;28;20178;-86
2022/01/23 07:37:58;;;;;;;7.90;7.23;;;2.00;99.90;;;;;;5053525;28;20570;-84
2022/01/23 07:40:24;;;;;;;8.17;7.20;;;2.00;99.90;;;;;;5053420;28;20180;-84
2022/01/23 07:42:51;;;;;;;9.53;7.43;;;2.00;99.90;;;;;;5053491;28;20229;-85
2022/01/23 07:45:17;;;;;;;9.10;7.57;;;2.00;99.90;;;;;;5040554;28;20179;-85
2022/01/23 07:47:44;;;;;;;8.20;7.20;;;2.00;99.90;;;;;;5057628;28;20171;-85
2022/01/23 07:50:11;;;;;;;10.07;7.53;;;1.90;99.90;;;;;;5056848;28;20205;-84
2022/01/23 07:52:38;;;;;;;9.33;7.47;;;1.90;99.90;;;;;;5054991;28;20707;-83
2022/01/23 07:55:13;;;;;;;8.77;7.87;;;1.80;99.90;;;;;;5042810;28;20179;-85
2022/01/23 07:57:42;;;;;;;9.33;7.47;;;1.70;99.90;;;;;;5062971;28;20221;-83
2022/01/23 08:00:09;;;;;;;8.43;7.50;;;1.70;99.90;;;;;;5044424;28;20215;-85
2022/01/23 08:02:35;;;;;;;9.87;7.87;;;1.70;99.90;;;;;;5067356;28;20226;-86
2022/01/23 08:05:02;;;;;;;8.40;7.60;;;1.80;99.90;;;;;;5063136;28;20225;-87
2022/01/23 08:09:56;;;;;;;10.17;7.57;;;2.00;99.90;;;;;;5073844;28;20216;-86
2022/01/23 08:12:25;;;;;;;9.33;7.50;;;1.90;99.90;;;;;;5073250;28;20177;-84
2022/01/23 08:14:52;;;;;;;8.30;7.53;;;1.80;99.90;;;;;;5059909;28;20165;-85
2022/01/23 08:17:19;;;;;;;8.03;7.23;;;1.70;99.90;;;;;;5040265;28;20181;-86
2022/01/23 08:19:45;;;;;;;8.10;7.30;;;1.70;99.90;;;;;;5057312;28;20177;-86
2022/01/23 08:22:11;;;;;;;9.20;7.90;;;1.70;99.90;;;;;;5057404;28;20168;-85
2022/01/23 08:24:37;;;;;;;8.00;7.20;;;1.80;99.90;;;;;;5057255;28;20249;-86
2022/01/23 08:27:03;;;;;;;8.30;7.43;;;1.80;99.90;;;;;;5058030;28;20204;-86
2022/01/23 08:29:29;;;;;;;19.53;7.23;;;1.90;99.90;;;;;;5057897;28;20219;-86
2022/01/23 08:31:55;;;;;;;8.40;7.50;;;2.00;99.90;;;;;;5042856;28;20199;-86
2022/01/23 08:34:21;;;;;;;8.53;7.63;;;2.00;99.90;;;;;;5059910;28;20205;-86
2022/01/23 08:36:47;;;;;;;7.73;6.93;;;2.20;99.90;;;;;;5055667;28;20175;-85
2022/01/23 08:39:15;;;;;;;8.10;7.30;;;2.40;99.90;;;;;;5067524;28;20179;-85
2022/01/23 08:41:49;;;;;;;8.53;7.57;;;2.40;99.90;;;;;;5078858;28;20269;-85
2022/01/23 08:44:24;;;;;;;7.57;6.90;;;2.40;99.90;;;;;;5064021;28;20205;-86
2022/01/23 08:46:50;;;;;;;8.53;7.73;;;2.50;99.90;;;;;;5057494;28;20634;-85
2022/01/23 08:49:19;;;;;;;7.90;7.10;;;2.50;99.90;;;;;;5056909;28;20210;-84
2022/01/23 08:51:46;;;;;;;8.90;8.00;;;2.40;99.90;;;;;;5061645;28;20168;-85
2022/01/23 08:54:12;;;;;;;11.40;7.37;;;2.50;99.90;;;;;;5069096;28;20171;-83
2022/01/23 08:56:38;;;;;;;7.30;6.70;;;2.60;99.90;;;;;;5066870;28;20176;-83
2022/01/23 08:59:05;;;;;;;7.67;6.93;;;2.70;99.90;;;;;;5056580;28;20164;-82
2022/01/23 09:01:31;;;;;;;8.60;7.70;;;3.00;99.90;;;;;;5056691;28;20180;-84
2022/01/23 09:04:22;;;;;;;8.83;7.57;;;3.00;99.90;;;;;;5058735;28;20274;-84
2022/01/23 09:06:48;;;;;;;7.57;6.97;;;3.00;99.90;;;;;;5039519;28;20225;-86
2022/01/23 09:09:18;;;;;;;9.13;7.70;;;3.00;99.90;;;;;;5056453;28;20236;-86
2022/01/23 09:14:20;;;;;;;9.60;7.70;;;3.10;99.90;;;;;;5064828;28;20182;-92
2022/01/23 09:16:48;;;;;;;7.77;6.97;;;3.20;99.90;;;;;;5041220;28;20179;-87
2022/01/23 09:19:16;;;;;;;8.43;7.57;;;3.30;99.90;;;;;;5057083;28;20187;-85
2022/01/23 09:21:42;;;;;;;8.07;7.27;;;3.40;99.90;;;;;;5056060;28;20175;-82
2022/01/23 09:24:08;;;;;;;8.20;7.43;;;3.50;99.60;;;;;;5055718;28;20259;-87
2022/01/23 09:26:36;;;;;;;8.03;7.30;;;3.50;99.50;;;;;;5037703;28;20183;-85
2022/01/23 09:29:13;;;;;;;8.20;7.40;;;3.50;99.30;;;;;;5055944;28;20167;-85
2022/01/23 09:31:48;;;;;;;7.90;7.20;;;3.50;99.30;;;;;;5055843;28;20167;-85
2022/01/23 09:34:19;;;;;;;7.80;7.10;;;3.40;99.80;;;;;;5055317;28;20641;-85
2022/01/23 09:36:45;;;;;;;7.47;6.80;;;3.50;99.60;;;;;;5055905;28;20247;-84
2022/01/23 09:39:15;;;;;;;8.57;6.93;;;3.50;99.30;;;;;;5037506;28;20176;-85
2022/01/23 09:41:45;;;;;;;8.67;7.77;;;3.60;99.50;;;;;;5055070;28;20290;-85
2022/01/23 09:44:15;;;;;;;9.20;8.30;;;3.70;99.30;;;;;;5056360;28;20168;-85
2022/01/23 09:46:43;;;;;;;8.50;7.70;;;3.80;99.10;;;;;;5041206;28;20176;-84
2022/01/23 09:49:12;;;;;;;9.17;8.27;;;3.70;99.50;;;;;;5057341;28;20214;-86
2022/01/23 09:51:41;;;;;;;9.53;7.40;;;3.70;99.30;;;;;;5038458;28;20226;-85
2022/01/23 09:54:14;;;;;;;10.67;7.43;;;3.70;99.40;;;;;;5055887;28;20623;-85
2022/01/23 09:56:41;;;;;;;8.60;7.80;;;3.80;99.10;;;;;;5038038;28;20188;-85
2022/01/23 09:59:12;;;;;;;9.40;7.90;;;3.90;99.00;;;;;;5057809;28;20172;-85
2022/01/23 10:01:45;;;;;;;10.10;8.40;;;3.90;99.00;;;;;;5057395;28;20199;-84
2022/01/23 10:04:14;;;;;;;9.70;8.30;;;4.00;99.10;;;;;;5055201;28;20152;-84
2022/01/23 10:06:39;;;;;;;8.57;7.77;;;4.10;99.10;;;;;;5055234;28;20178;-85
2022/01/23 10:09:08;;;;;;;9.00;8.10;;;4.20;98.80;;;;;;5042547;28;20606;-85
2022/01/23 10:11:39;;;;;;;10.30;8.27;;;4.30;98.80;;;;;;5064864;28;20571;-85
2022/01/23 10:14:06;;;;;;;11.20;7.97;;;4.40;99.00;;;;;;5071563;23;20236;-85
2022/01/23 10:16:33;;;;;;;14.70;8.50;;;4.50;99.00;;;;;;5020460;28;20256;-84
2022/01/23 10:19:01;;;;;;;13.30;8.33;;;4.60;98.70;;;;;;5020916;28;20271;-83
2022/01/23 10:21:29;;;;;;;8.57;7.77;;;4.60;98.40;;;;;;5023757;28;20184;-84
2022/01/23 10:23:55;;;;;;;8.90;7.67;;;4.60;98.60;;;;;;5024406;28;20157;-84
2022/01/23 10:26:43;;;;;;;7.97;7.17;;;4.60;98.50;;;;;;5024648;28;20169;-84
2022/01/23 10:29:29;;;;;;;7.60;6.90;;;4.80;98.40;;;;;;5111250;22;20243;-84
2022/01/23 10:32:21;;;;;;;8.73;7.17;;;4.80;98.10;;;;;;5046567;28;20203;-82
2022/01/23 10:34:48;;;;;;;8.70;7.90;;;4.70;98.10;;;;;;5050542;28;20172;-84
2022/01/23 10:37:33;;;;;;;9.33;7.97;;;4.80;98.20;;;;;;5069735;28;20167;-84
2022/01/23 10:40:20;;;;;;;9.53;7.90;;;4.70;98.20;;;;;;5071599;28;20197;-85
2022/01/23 10:48:45;;;;;;;8.80;7.90;;;4.70;98.10;;;;;;5070313;28;20167;-84
2022/01/23 10:51:36;;;;;;;8.50;7.73;;;4.70;98.40;;;;;;5061481;28;20193;-85
2022/01/23 10:54:24;;;;;;;10.07;8.97;;;4.70;98.30;;;;;;5052122;28;20165;-83
2022/01/23 10:57:00;;;;;;;10.57;7.90;;;4.80;98.30;;;;;;5044394;28;20195;-84
2022/01/23 10:59:40;;;;;;;9.50;8.40;;;4.80;98.10;;;;;;5061337;28;20191;-85
2022/01/23 11:02:11;;;;;;;8.93;8.10;;;4.90;98.10;;;;;;5061577;28;20179;-85
2022/01/23 11:04:55;;;;;;;9.33;8.43;;;5.00;98.00;;;;;;5059581;28;20666;-85
2022/01/23 11:07:23;;;;;;;9.87;8.43;;;4.90;97.90;;;;;;5056516;28;20179;-85
2022/01/23 11:09:56;;;;;;;9.13;7.77;;;5.00;97.80;;;;;;5056165;28;20262;-84
2022/01/23 11:17:55;;;;;;;9.17;7.53;;;5.30;97.50;;;;;;5053564;28;20178;-84
2022/01/23 11:20:48;;;;;;;8.70;7.80;;;5.20;97.30;;;;;;5054051;28;20164;-84
2022/01/23 11:23:22;;;;;;;9.00;7.93;;;5.10;97.30;;;;;;5054204;28;20152;-84
2022/01/23 11:25:57;;;;;;;9.50;7.93;;;5.10;97.60;;;;;;5053387;28;20173;-84
2022/01/23 11:28:43;;;;;;;8.40;7.60;;;5.10;97.50;;;;;;5053998;28;20233;-85
2022/01/23 11:31:19;;;;;;;9.10;8.10;;;4.90;97.50;;;;;;5053723;28;20318;-85
2022/01/23 11:33:46;;;;;;;10.03;7.97;;;5.00;97.60;;;;;;5054766;28;20167;-85
2022/01/23 11:36:12;;;;;;;8.33;7.43;;;5.10;97.70;;;;;;5053805;28;20688;-84
2022/01/23 11:38:43;;;;;;;10.20;8.50;;;5.20;97.40;;;;;;5053660;28;20230;-84
2022/01/23 11:55:07;;;;;;;9.80;8.90;;;5.20;97.60;;;;;;5059624;28;20249;-86
2022/01/23 11:57:33;;;;;;;9.30;8.30;;;5.20;97.60;;;;;;5057404;28;20171;-86
2022/01/23 12:00:03;;;;;;;8.50;7.70;;;5.30;97.50;;;;;;5057452;28;20167;-84
2022/01/23 12:02:35;;;;;;;9.53;8.53;;;5.30;97.70;;;;;;5057161;28;20167;-83
2022/01/23 12:05:18;;;;;;;10.30;8.07;;;5.40;97.50;;;;;;5058261;28;20646;-83
2022/01/23 12:07:45;;;;;;;9.33;8.27;;;5.30;97.40;;;;;;5057796;28;20639;-86
2022/01/23 12:10:21;;;;;;;10.00;8.60;;;5.40;97.40;;;;;;5058744;28;20211;-83
2022/01/23 12:12:51;;;;;;;13.23;9.13;;;5.30;97.40;;;;;;5058377;28;20164;-84
2022/01/23 12:18:15;;;;;;;11.13;9.80;;;5.10;97.70;;;;;;5057909;28;20172;-84
2022/01/23 12:20:44;;;;;;;11.80;8.97;;;5.00;97.70;;;;;;5059234;28;20245;-86
2022/01/23 12:23:10;;;;;;;10.77;8.67;;;5.00;97.80;;;;;;5058306;28;20670;-85
2022/01/23 12:25:45;;;;;;;9.67;8.57;;;4.90;98.00;;;;;;5060014;28;20206;-84
2022/01/23 12:28:24;;;;;;;14.87;9.50;;;5.00;98.00;;;;;;5066991;28;20155;-84
2022/01/23 12:30:54;;;;;;;12.83;9.70;;;5.00;97.90;;;;;;5067577;28;20241;-84
2022/01/23 12:33:29;;;;;;;10.53;9.37;;;5.00;97.90;;;;;;5072982;28;20258;-83
2022/01/23 12:36:07;;;;;;;10.00;8.83;;;5.10;97.70;;;;;;5076990;28;20153;-82
2022/01/23 12:38:42;;;;;;;9.30;8.20;;;5.20;97.80;;;;;;5077014;28;20158;-82
2022/01/23 12:41:14;;;;;;;10.33;9.13;;;5.30;97.80;;;;;;5070430;28;20163;-81
2022/01/23 12:43:40;;;;;;;9.63;8.70;;;5.50;97.70;;;;;;5066524;28;20180;-82
2022/01/23 12:46:08;;;;;;;10.77;8.17;;;5.70;97.20;;;;;;5064422;28;20176;-84
2022/01/23 12:48:38;;;;;;;8.97;8.17;;;5.70;96.90;;;;;;5058034;28;20218;-85
2022/01/23 12:51:31;;;;;;;15.13;8.63;;;5.80;97.00;;;;;;5038945;28;20219;-86
2022/01/23 12:53:57;;;;;;;9.80;7.90;;;5.90;97.00;;;;;;5048500;28;20252;-84
2022/01/23 12:56:30;;;;;;;10.23;8.00;;;5.90;96.70;;;;;;5056400;28;20164;-83
2022/01/23 12:59:05;;;;;;;10.10;8.87;;;6.00;96.80;;;;;;5057367;28;20174;-84
2022/01/23 13:01:31;;;;;;;8.97;8.07;;;6.10;96.80;;;;;;5057155;28;20511;-85
2022/01/23 13:04:01;;;;;;;10.77;7.83;;;6.30;96.70;;;;;;5057959;28;20172;-85
2022/01/23 13:06:33;;;;;;;9.13;8.13;;;6.40;96.60;;;;;;5056786;28;20182;-84
2022/01/23 13:10:27;;;;;;;8.57;7.77;;;6.40;96.60;;;;;;5057154;28;20628;-83
2022/01/23 13:12:48;;;;;;;10.17;8.13;;;6.40;96.60;;;;;;5048115;28;20194;-85
2022/01/23 13:15:46;;;;;;;12.93;8.43;;;6.40;96.60;;;;;;5057477;28;20325;-85
2022/01/23 13:18:39;;;;;;;9.87;8.20;;;6.50;96.50;;;;;;5056798;28;20174;-84
2022/01/23 13:32:15;;;;;;;9.20;8.23;;;6.70;96.40;;;;;;5056178;28;20183;-85
2022/01/23 13:34:45;;;;;;;8.60;7.60;;;6.80;96.20;;;;;;5056600;28;20166;-85
2022/01/23 13:37:14;;;;;;;9.60;7.83;;;6.80;96.10;;;;;;5057551;28;20210;-85
2022/01/23 13:39:50;;;;;;;9.67;8.10;;;6.70;96.20;;;;;;5055953;28;20195;-85
2022/01/23 13:59:50;;;;;;;15.27;10.23;;;6.90;96.50;;;;;;5056238;28;20650;-83
2022/01/23 14:02:28;;;;;;;13.37;10.60;;;6.80;96.70;;;;;;5058331;28;20161;-91
2022/01/23 14:05:14;;;;;;;10.73;9.50;;;6.60;96.80;;;;;;5039782;28;20254;-84
2022/01/23 14:07:45;;;;;;;10.33;9.20;;;6.60;96.70;;;;;;5037807;28;20523;-85
2022/01/23 14:10:28;;;;;;;10.70;9.47;;;6.50;96.90;;;;;;5055708;28;20205;-87
2022/01/23 14:13:03;;;;;;;11.97;9.30;;;6.50;96.90;;;;;;5055069;28;20185;-83
2022/01/23 14:15:29;;;;;;;10.00;8.97;;;6.40;96.90;;;;;;5056295;28;20256;-84
2022/01/23 14:18:10;;;;;;;14.10;9.63;;;6.30;97.10;;;;;;5057735;28;20258;-84
2022/01/23 14:20:40;;;;;;;10.50;8.93;;;6.30;97.10;;;;;;5058027;28;20251;-85
2022/01/23 14:23:18;;;;;;;9.80;8.73;;;6.40;96.70;;;;;;5057670;28;20182;-84
2022/01/23 14:25:57;;;;;;;12.70;8.40;;;6.30;96.70;;;;;;5063189;28;20161;-83
2022/01/23 14:28:35;;;;;;;10.47;9.37;;;6.30;96.70;;;;;;5068091;28;20245;-85
2022/01/23 14:31:12;;;;;;;10.50;9.43;;;6.30;97.00;;;;;;5065279;28;20238;-86
2022/01/23 14:33:39;;;;;;;11.00;9.13;;;6.20;96.90;;;;;;5049727;28;20166;-84
2022/01/23 14:36:20;;;;;;;11.00;9.53;;;6.20;96.80;;;;;;5069897;28;20175;-84
2022/01/23 14:39:09;;;;;;;12.53;10.10;;;6.10;97.10;;;;;;5074079;28;20203;-84
2022/01/23 14:41:41;;;;;;;10.80;9.80;;;6.00;97.10;;;;;;5071382;28;20172;-85
2022/01/23 14:44:22;;;;;;;13.90;9.93;;;5.90;97.10;;;;;;5058803;28;20281;-86
2022/01/23 14:46:50;;;;;;;15.03;11.57;;;5.90;97.30;;;;;;5055325;28;20165;-86
2022/01/23 14:49:23;;;;;;;11.90;10.23;;;5.90;97.40;;;;;;5056042;28;20665;-86
2022/01/23 14:51:49;;;;;;;12.40;9.80;;;6.00;97.30;;;;;;5055507;28;20161;-86
2022/01/23 14:54:17;;;;;;;11.30;9.27;;;6.00;97.20;;;;;;5055444;28;20512;-85
2022/01/23 14:56:43;;;;;;;11.47;8.90;;;6.00;97.20;;;;;;5042828;28;20178;-87
2022/01/23 14:59:13;;;;;;;13.10;8.83;;;6.00;97.10;;;;;;5035314;28;20179;-86
2022/01/23 15:01:42;;;;;;;9.17;8.20;;;6.00;97.30;;;;;;5039075;28;20172;-85
2022/01/23 15:04:10;;;;;;;10.80;9.17;;;5.90;97.20;;;;;;5035465;28;20167;-86
2022/01/23 15:06:41;;;;;;;12.43;10.03;;;5.90;97.40;;;;;;5034623;28;20345;-86
2022/01/23 15:09:10;;;;;;;11.50;9.67;;;5.80;97.40;;;;;;5034853;28;20167;-85
2022/01/23 15:11:37;;;;;;;11.13;9.60;;;5.90;97.40;;;;;;5035331;28;20173;-86
2022/01/23 15:14:05;;;;;;;11.30;9.60;;;5.90;97.40;;;;;;5033835;28;20179;-86
2022/01/23 15:16:31;;;;;;;10.07;9.00;;;6.00;97.20;;;;;;5033981;28;20166;-85
2022/01/23 15:18:57;;;;;;;11.73;10.00;;;5.90;97.60;;;;;;5018458;28;20173;-85
2022/01/23 15:21:24;;;;;;;11.03;9.83;;;5.80;97.60;;;;;;5037468;28;20172;-87
2022/01/23 15:23:55;;;;;;;11.33;10.13;;;5.80;97.70;;;;;;5034811;28;20171;-87
2022/01/23 15:26:26;;;;;;;13.73;11.13;;;5.70;97.80;;;;;;5036453;28;20793;-87
2022/01/23 15:28:52;;;;;;;14.53;10.77;;;5.60;97.90;;;;;;5035405;28;20220;-87
2022/01/23 15:31:18;;;;;;;13.10;11.33;;;5.80;97.70;;;;;;5018041;28;20572;-87
2022/01/23 15:33:44;;;;;;;16.10;11.17;;;5.70;97.70;;;;;;5037721;28;20172;-87
2022/01/23 15:36:10;;;;;;;12.60;10.07;;;5.70;97.90;;;;;;5020967;28;20173;-87
2022/01/23 15:38:41;;;;;;;14.73;8.60;;;5.60;97.90;;;;;;5039106;28;20229;-85
2022/01/23 15:41:07;;;;;;;13.67;10.27;;;5.60;97.70;;;;;;5020902;28;20171;-86
2022/01/23 15:43:33;;;;;;;13.83;10.27;;;5.50;97.80;;;;;;5041544;28;20263;-85
2022/01/23 15:45:59;;;;;;;13.17;10.03;;;5.60;97.90;;;;;;5034065;28;20618;-83
2022/01/23 15:48:30;;;;;;;13.40;10.90;;;5.50;97.90;;;;;;5050873;28;20181;-84
2022/01/23 15:50:59;;;;;;;11.83;9.50;;;5.40;98.10;;;;;;5043975;28;20651;-85
2022/01/23 15:53:25;;;;;;;12.13;9.40;;;5.30;98.10;;;;;;5038042;28;20214;-86
2022/01/23 15:55:51;;;;;;;10.47;9.47;;;5.10;98.60;;;;;;5037755;28;20169;-82
2022/01/23 15:58:17;;;;;;;12.03;8.83;;;5.10;98.40;;;;;;5034028;28;20182;-82
2022/01/23 16:00:43;;;;;;;12.20;8.90;;;5.30;99.90;;;;;;5034407;28;20207;-84
2022/01/23 16:03:09;;;;;;;13.80;10.17;;;5.40;99.90;;;;;;5036320;28;20255;-83
2022/01/23 16:05:35;;;;;;;14.00;9.60;;;5.60;98.50;;;;;;5035822;28;20311;-83
2022/01/23 16:08:02;;;;;;;10.60;9.50;;;5.70;99.30;;;;;;5035385;28;20321;-82
2022/01/23 16:10:28;;;;;;;14.03;9.67;;;5.60;99.00;;;;;;5035483;28;20208;-85
2022/01/23 16:12:54;;;;;;;15.30;10.83;;;5.70;98.80;;;;;;5037244;28;20198;-84
2022/01/23 16:15:21;;;;;;;10.77;9.67;;;5.60;98.10;;;;;;5054023;28;20639;-86
2022/01/23 16:17:48;;;;;;;12.20;9.73;;;5.60;98.00;;;;;;5062295;28;20590;-87
2022/01/23 16:20:16;;;;;;;11.60;9.37;;;5.60;97.90;;;;;;5052433;28;20187;-84
2022/01/23 16:22:43;;;;;;;12.23;9.57;;;5.50;97.90;;;;;;5061565;28;20196;-85
2022/01/23 16:25:11;;;;;;;12.03;10.17;;;5.40;98.00;;;;;;5056362;28;20164;-87
2022/01/23 16:27:38;;;;;;;11.77;9.60;;;5.40;97.90;;;;;;5036120;28;20268;-85
2022/01/23 16:30:07;;;;;;;10.97;9.47;;;5.40;98.00;;;;;;5037829;28;20235;-84
2022/01/23 16:32:33;;;;;;;12.03;9.77;;;5.40;97.90;;;;;;5067393;28;20169;-83
2022/01/23 16:34:58;;;;;;;12.00;9.50;;;5.30;98.20;;;;;;5066232;28;20182;-87
2022/01/23 16:37:24;;;;;;;12.83;10.30;;;5.20;98.50;;;;;;5058258;28;20172;-87
2022/01/23 16:39:50;;;;;;;13.20;10.83;;;5.30;98.10;;;;;;5049106;28;20175;-87
2022/01/23 16:42:16;;;;;;;13.77;10.50;;;5.20;99.80;;;;;;5061684;28;20169;-87
2022/01/23 16:44:42;;;;;;;11.73;10.53;;;5.20;99.40;;;;;;5060509;28;20172;-87